Time;durP1;ratioP1;P1;durP2;ratioP2;P2;SDS_P1;SDS_P2;PMS_P1;PMS_P2;Temp;Humidity;BMP_temperature;BMP_pressure;BME280_temperature;BME280_humidity;BME280_pressure;Samples;Min_cycle;Max_cycle;Signal;HPM_P1;HPM_P2
2023/01/18 00:00:26;;;;;;;;;;;;;;;0.99;94.38;99118.28;5076423;28;20108;-77
2023/01/18 00:02:53;;;;;;;;;;;;;;;0.99;94.61;99110.53;5075905;28;19920;-77
2023/01/18 00:05:19;;;;;;;;;;;;;;;1.00;94.68;99125.09;5075461;28;19916;-77
2023/01/18 00:07:44;;;;;;;;;;;;;;;0.99;94.72;99115.69;5092183;28;20116;-77
2023/01/18 00:10:09;;;;;;;;;;;;;;;0.99;94.96;99123.44;5097372;28;19912;-77
2023/01/18 00:12:35;;;;;;;;;;;;;;;0.98;94.92;99124.31;5095461;28;20167;-77
2023/01/18 00:15:00;;;;;;;;;;;;;;;0.97;95.01;99125.22;5097151;28;19945;-77
2023/01/18 00:17:25;;;;;;;;;;;;;;;0.94;94.99;99126.97;5096525;28;19926;-77
2023/01/18 00:19:50;;;;;;;;;;;;;;;0.94;95.04;99123.56;5097415;28;19927;-77
2023/01/18 00:22:16;;;;;;;;;;;;;;;0.92;95.03;99128.75;5097183;28;20062;-77
2023/01/18 00:24:41;;;;;;;;;;;;;;;0.94;95.16;99123.56;5098301;28;19920;-77
2023/01/18 00:27:08;;;;;;;;;;;;;;;0.92;95.13;99122.75;5098281;28;20156;-77
2023/01/18 00:29:33;;;;;;;;;;;;;;;0.91;95.11;99129.66;5096372;28;20199;-77
2023/01/18 00:31:58;;;;;;;;;;;;;;;0.90;95.24;99124.53;5098512;28;19912;-77
2023/01/18 00:34:27;;;;;;;;;;;;;;;0.88;95.04;99116.84;5097256;28;20219;-77
2023/01/18 00:36:52;;;;;;;;;;;;;;;0.86;95.22;99123.78;5096765;28;19924;-77
2023/01/18 00:39:17;;;;;;;;;;;;;;;0.85;95.11;99126.41;5098270;28;20115;-77
2023/01/18 00:43:37;;;;;;;;;;;;;;;0.83;95.05;99121.28;5097826;28;19947;-77
2023/01/18 00:44:28;;;;;;;;;;;;;;;0.81;95.19;99125.63;5098162;28;19920;-78
2023/01/18 00:46:54;;;;;;;;;;;;;;;0.80;95.12;99116.22;5097972;28;20237;-77
2023/01/18 00:49:20;;;;;;;;;;;;;;;0.80;95.03;99134.28;5080445;28;20002;-77
2023/01/18 00:51:45;;;;;;;;;;;;;;;0.79;95.09;99121.44;5097814;28;19919;-77
2023/01/18 00:54:10;;;;;;;;;;;;;;;0.78;95.04;99117.97;5097041;28;19920;-77
2023/01/18 00:56:36;;;;;;;;;;;;;;;0.76;95.13;99119.75;5096281;28;19952;-77
2023/01/18 00:59:01;;;;;;;;;;;;;;;0.75;95.18;99118.94;5098286;28;19924;-77
2023/01/18 01:01:26;;;;;;;;;;;;;;;0.75;95.13;99125.81;5096599;28;19920;-77
2023/01/18 01:06:44;;;;;;;;;;;;;;;0.73;95.14;99138.75;5097372;28;19919;-77
2023/01/18 01:09:18;;;;;;;;;;;;;;;0.73;95.17;99136.16;5098252;28;19983;-77
2023/01/18 01:12:31;;;;;;;;;;;;;;;0.72;95.31;99138.78;5097442;28;20196;-77
2023/01/18 01:28:08;;;;;;;;;;;;;;;0.66;95.92;99137.22;5098097;28;19926;-77
2023/01/18 01:30:33;;;;;;;;;;;;;;;0.66;95.95;99138.97;5080887;28;20014;-77
2023/01/18 01:32:58;;;;;;;;;;;;;;;0.64;95.92;99144.16;5101834;28;19920;-77
2023/01/18 01:35:23;;;;;;;;;;;;;;;0.64;95.85;99141.56;5100483;28;19990;-77
2023/01/18 01:37:49;;;;;;;;;;;;;;;0.64;95.82;99145.84;5101267;28;20024;-77
2023/01/18 01:40:14;;;;;;;;;;;;;;;0.63;96.18;99139.03;5101910;28;20011;-77
2023/01/18 01:42:39;;;;;;;;;;;;;;;0.62;96.10;99148.50;5099931;28;19957;-77
2023/01/18 01:45:05;;;;;;;;;;;;;;;0.62;96.00;99148.50;5101916;28;19979;-77
2023/01/18 01:47:33;;;;;;;;;;;;;;;0.62;96.07;99150.22;5100240;28;20026;-77
2023/01/18 01:50:01;;;;;;;;;;;;;;;0.61;96.10;99159.69;5101560;28;19907;-77
2023/01/18 01:52:32;;;;;;;;;;;;;;;0.61;96.33;99157.09;5101470;28;20150;-77
2023/01/18 01:55:00;;;;;;;;;;;;;;;0.62;96.42;99163.09;5099992;28;19967;-77
2023/01/18 01:57:29;;;;;;;;;;;;;;;0.61;96.45;99166.56;5101175;28;19908;-77
2023/01/18 01:59:58;;;;;;;;;;;;;;;0.60;96.39;99163.16;5100744;28;20135;-77
2023/01/18 02:02:23;;;;;;;;;;;;;;;0.60;96.56;99164.88;5101431;28;19908;-77
2023/01/18 02:04:52;;;;;;;;;;;;;;;0.59;96.56;99160.63;5100529;28;19957;-77
2023/01/18 02:07:18;;;;;;;;;;;;;;;0.60;96.55;99164.88;5101290;28;19919;-77
2023/01/18 02:09:43;;;;;;;;;;;;;;;0.59;96.65;99155.47;5098989;28;19908;-77
2023/01/18 02:12:09;;;;;;;;;;;;;;;0.58;96.69;99154.59;5101149;28;20187;-77
2023/01/18 02:14:34;;;;;;;;;;;;;;;0.59;96.81;99158.88;5099120;28;19912;-77
2023/01/18 02:17:00;;;;;;;;;;;;;;;0.58;96.93;99167.47;5099699;28;19916;-77
2023/01/18 02:19:44;;;;;;;;;;;;;;;0.59;97.09;99165.78;5100878;28;19916;-77
2023/01/18 02:22:09;;;;;;;;;;;;;;;0.57;97.26;99158.91;5100938;28;20380;-77
2023/01/18 02:24:38;;;;;;;;;;;;;;;0.57;97.12;99165.81;5098875;28;19912;-77
2023/01/18 02:27:14;;;;;;;;;;;;;;;0.56;97.19;99171.84;5100781;28;19984;-77
2023/01/18 02:30:08;;;;;;;;;;;;;;;0.54;97.22;99173.59;5100000;28;19943;-77
2023/01/18 02:32:36;;;;;;;;;;;;;;;0.54;97.33;99165.88;5082614;28;19978;-77
2023/01/18 02:35:07;;;;;;;;;;;;;;;0.54;97.43;99168.47;5100760;28;20003;-77
2023/01/18 02:37:39;;;;;;;;;;;;;;;0.54;97.42;99173.59;5099854;28;20107;-77
2023/01/18 02:40:23;;;;;;;;;;;;;;;0.55;97.44;99177.88;5100473;28;19965;-77
2023/01/18 02:48:19;;;;;;;;;;;;;;;0.54;97.72;99186.50;5100480;28;19926;-77
2023/01/18 02:50:44;;;;;;;;;;;;;;;0.52;97.76;99181.38;5099982;28;19908;-77
2023/01/18 02:53:16;;;;;;;;;;;;;;;0.53;97.82;99182.25;5082370;28;19912;-77
2023/01/18 02:55:54;;;;;;;;;;;;;;;0.52;97.90;99194.25;5098700;28;19912;-77
2023/01/18 02:58:26;;;;;;;;;;;;;;;0.52;97.81;99194.25;5100045;28;19953;-77
2023/01/18 03:00:54;;;;;;;;;;;;;;;0.52;97.93;99185.69;5098820;28;19916;-77
2023/01/18 03:03:20;;;;;;;;;;;;;;;0.53;98.11;99182.25;5100156;28;19961;-77
2023/01/18 03:05:47;;;;;;;;;;;;;;;0.52;98.22;99186.53;5098391;28;20092;-77
2023/01/18 03:08:15;;;;;;;;;;;;;;;0.52;98.28;99183.13;5098467;28;19920;-77
2023/01/18 03:11:01;;;;;;;;;;;;;;;0.53;98.36;99179.66;5099280;28;19912;-77
2023/01/18 03:13:30;;;;;;;;;;;;;;;0.53;98.35;99174.50;5099535;28;19916;-77
2023/01/18 03:16:00;;;;;;;;;;;;;;;0.52;98.52;99181.38;5098518;28;19994;-77
2023/01/18 03:18:58;;;;;;;;;;;;;;;0.53;98.61;99187.41;5098092;28;19948;-77
2023/01/18 03:21:26;;;;;;;;;;;;;;;0.53;98.72;99190.81;5099261;28;19982;-77
2023/01/18 03:23:52;;;;;;;;;;;;;;;0.53;98.82;99182.25;5098896;28;20358;-77
2023/01/18 03:26:19;;;;;;;;;;;;;;;0.52;98.86;99186.53;5081277;28;20207;-77
2023/01/18 03:34:37;;;;;;;;;;;;;;;0.52;99.08;99191.69;5099014;28;19923;-77
2023/01/18 03:37:04;;;;;;;;;;;;;;;0.51;99.11;99195.16;5098985;28;19930;-77
2023/01/18 03:39:33;;;;;;;;;;;;;;;0.51;99.17;99184.84;5099336;28;20116;-77
2023/01/18 03:42:04;;;;;;;;;;;;;;;0.52;99.39;99193.41;5098960;28;19916;-77
2023/01/18 03:44:38;;;;;;;;;;;;;;;0.51;99.43;99192.59;5097662;28;19908;-77
2023/01/18 03:47:04;;;;;;;;;;;;;;;0.53;99.46;99192.53;5080247;28;19916;-77
2023/01/18 03:49:30;;;;;;;;;;;;;;;0.53;99.46;99189.97;5077583;28;19948;-77
2023/01/18 03:52:05;;;;;;;;;;;;;;;0.51;99.71;99192.59;5078015;28;19916;-77
2023/01/18 03:54:33;;;;;;;;;;;;;;;0.52;99.63;99198.56;5078366;28;19908;-77
2023/01/18 03:57:17;;;;;;;;;;;;;;;0.51;99.63;99194.28;5078538;28;20264;-77
2023/01/18 03:59:43;;;;;;;;;;;;;;;0.51;99.83;99200.31;5076421;28;20203;-77
2023/01/18 04:02:09;;;;;;;;;;;;;;;0.51;99.63;99200.31;5077253;28;20144;-77
2023/01/18 04:04:34;;;;;;;;;;;;;;;0.53;99.52;99205.44;5076516;28;19936;-77
2023/01/18 04:06:59;;;;;;;;;;;;;;;0.54;99.66;99207.94;5078540;28;19909;-77
2023/01/18 04:09:25;;;;;;;;;;;;;;;0.54;99.85;99202.78;5078465;28;19909;-77
2023/01/18 04:11:50;;;;;;;;;;;;;;;0.54;99.84;99202.78;5078057;28;19913;-77
2023/01/18 04:14:15;;;;;;;;;;;;;;;0.55;99.97;99208.81;5078322;28;19912;-77
2023/01/18 04:16:41;;;;;;;;;;;;;;;0.54;99.98;99207.94;5059484;28;19966;-77
2023/01/18 04:19:07;;;;;;;;;;;;;;;0.54;100.00;99207.09;5078116;28;20029;-77
2023/01/18 04:21:32;;;;;;;;;;;;;;;0.55;100.00;99214.78;5077612;28;19955;-77
2023/01/18 04:23:58;;;;;;;;;;;;;;;0.55;100.00;99219.94;5077210;28;19919;-77
2023/01/18 04:26:23;;;;;;;;;;;;;;;0.56;100.00;99211.34;5076547;28;19992;-77
2023/01/18 04:28:48;;;;;;;;;;;;;;;0.57;99.98;99214.75;5077648;28;19921;-77
2023/01/18 04:31:13;;;;;;;;;;;;;;;0.58;100.00;99211.28;5077700;28;19948;-77
2023/01/18 04:33:39;;;;;;;;;;;;;;;0.59;100.00;99222.44;5075839;28;19920;-77
2023/01/18 04:36:04;;;;;;;;;;;;;;;0.60;100.00;99226.69;5093547;28;19935;-77
2023/01/18 04:38:29;;;;;;;;;;;;;;;0.60;100.00;99229.28;5076674;28;19999;-77
2023/01/18 04:40:55;;;;;;;;;;;;;;;0.60;100.00;99229.28;5075930;28;20069;-77
2023/01/18 04:43:20;;;;;;;;;;;;;;;0.60;100.00;99232.72;5077645;28;19987;-77
2023/01/18 04:45:53;;;;;;;;;;;;;;;0.60;100.00;99229.28;5075723;28;19995;-77
2023/01/18 04:48:18;;;;;;;;;;;;;;;0.61;100.00;99230.97;5078066;28;19975;-77
2023/01/18 04:50:45;;;;;;;;;;;;;;;0.60;100.00;99229.28;5077112;28;19920;-77
2023/01/18 04:53:10;;;;;;;;;;;;;;;0.61;100.00;99218.94;5077612;28;20007;-77
2023/01/18 04:55:36;;;;;;;;;;;;;;;0.61;100.00;99223.25;5075749;28;19920;-77
2023/01/18 04:58:01;;;;;;;;;;;;;;;0.62;100.00;99230.09;5076572;28;19924;-77
2023/01/18 05:00:26;;;;;;;;;;;;;;;0.62;100.00;99230.09;5076161;28;20108;-77
2023/01/18 05:02:51;;;;;;;;;;;;;;;0.62;100.00;99233.53;5075620;28;20119;-77
2023/01/18 05:05:17;;;;;;;;;;;;;;;0.62;100.00;99236.09;5075469;28;19919;-77
2023/01/18 05:07:42;;;;;;;;;;;;;;;0.63;100.00;99232.63;5075618;28;19987;-77
2023/01/18 05:10:08;;;;;;;;;;;;;;;0.65;100.00;99232.59;5059755;28;19912;-77
2023/01/18 05:12:34;;;;;;;;;;;;;;;0.66;100.00;99244.59;5076720;28;20108;-77
2023/01/18 05:14:59;;;;;;;;;;;;;;;0.66;100.00;99240.28;5059294;28;19920;-77
2023/01/18 05:17:29;;;;;;;;;;;;;;;0.67;100.00;99238.53;5059136;28;19920;-77
2023/01/18 05:19:55;;;;;;;;;;;;;;;0.68;100.00;99238.50;5076910;28;19934;-77
2023/01/18 05:22:21;;;;;;;;;;;;;;;0.69;100.00;99244.50;5076137;28;19983;-78
2023/01/18 05:24:46;;;;;;;;;;;;;;;0.69;100.00;99242.78;5077153;28;19916;-77
2023/01/18 05:27:12;;;;;;;;;;;;;;;0.68;100.00;99250.56;5076331;28;19968;-77
2023/01/18 05:29:37;;;;;;;;;;;;;;;0.68;100.00;99248.81;5076748;28;19920;-77
2023/01/18 05:32:03;;;;;;;;;;;;;;;0.69;100.00;99247.06;5077005;28;19924;-77
2023/01/18 05:34:28;;;;;;;;;;;;;;;0.69;100.00;99254.81;5077139;28;19913;-77
2023/01/18 05:36:53;;;;;;;;;;;;;;;0.69;100.00;99252.22;5058628;28;20089;-77
2023/01/18 05:39:18;;;;;;;;;;;;;;;0.70;100.00;99265.06;5077130;28;19959;-77
2023/01/18 05:41:44;;;;;;;;;;;;;;;0.71;100.00;99258.19;5075422;28;19985;-77
2023/01/18 05:44:09;;;;;;;;;;;;;;;0.70;100.00;99254.78;5059009;28;19913;-77
2023/01/18 05:46:35;;;;;;;;;;;;;;;0.72;100.00;99262.47;5076474;28;19936;-78
2023/01/18 05:49:00;;;;;;;;;;;;;;;0.71;100.00;99261.63;5077048;28;19912;-77
2023/01/18 05:51:25;;;;;;;;;;;;;;;0.72;100.00;99263.31;5075807;28;19932;-77
2023/01/18 05:53:51;;;;;;;;;;;;;;;0.73;100.00;99261.59;5076548;28;19958;-78
2023/01/18 05:56:16;;;;;;;;;;;;;;;0.75;100.00;99272.72;5059273;28;19920;-77
2023/01/18 05:58:41;;;;;;;;;;;;;;;0.76;100.00;99280.41;5076354;28;20258;-77
2023/01/18 06:01:07;;;;;;;;;;;;;;;0.78;100.00;99270.03;5079767;28;19920;-77
2023/01/18 06:03:33;;;;;;;;;;;;;;;0.80;100.00;99275.16;5095817;28;20275;-77
2023/01/18 06:05:58;;;;;;;;;;;;;;;0.81;100.00;99282.00;5095366;28;19966;-77
2023/01/18 06:08:23;;;;;;;;;;;;;;;0.82;100.00;99279.41;5096131;28;19952;-77
2023/01/18 06:10:55;;;;;;;;;;;;;;;0.84;100.00;99287.09;5096507;28;20292;-77
2023/01/18 06:13:22;;;;;;;;;;;;;;;0.85;100.00;99286.19;5097074;28;19912;-77
2023/01/18 06:15:47;;;;;;;;;;;;;;;0.87;100.00;99287.00;5097242;28;19916;-77
2023/01/18 06:18:13;;;;;;;;;;;;;;;0.88;100.00;99296.44;5099348;28;20253;-77
2023/01/18 06:20:38;;;;;;;;;;;;;;;0.89;100.00;99290.38;5099383;28;19920;-77
2023/01/18 06:23:04;;;;;;;;;;;;;;;0.90;100.00;99290.34;5100515;28;19927;-77
2023/01/18 06:25:29;;;;;;;;;;;;;;;0.90;100.00;99292.91;5099327;28;19957;-77
2023/01/18 06:27:54;;;;;;;;;;;;;;;0.90;100.00;99294.66;5100202;28;19920;-77
2023/01/18 06:30:19;;;;;;;;;;;;;;;0.90;100.00;99294.66;5098944;28;19947;-77
2023/01/18 06:32:47;;;;;;;;;;;;;;;0.90;100.00;99295.50;5094168;28;19924;-77
2023/01/18 06:35:12;;;;;;;;;;;;;;;0.90;100.00;99292.09;5098362;28;20284;-77
2023/01/18 06:37:37;;;;;;;;;;;;;;;0.89;100.00;99304.13;5097288;28;19963;-77
2023/01/18 06:40:03;;;;;;;;;;;;;;;0.90;100.00;99307.53;5098587;28;20322;-77
2023/01/18 06:42:28;;;;;;;;;;;;;;;0.89;100.00;99309.28;5080192;28;19912;-78
2023/01/18 06:44:53;;;;;;;;;;;;;;;0.90;100.00;99312.69;5098065;28;20116;-78
2023/01/18 06:47:19;;;;;;;;;;;;;;;0.90;100.00;99315.28;5097820;28;19947;-77
2023/01/18 06:49:47;;;;;;;;;;;;;;;0.90;100.00;99317.84;5096269;28;19924;-77
2023/01/18 06:52:13;;;;;;;;;;;;;;;0.90;100.00;99320.44;5091860;28;19992;-77
2023/01/18 06:54:39;;;;;;;;;;;;;;;0.89;100.00;99322.16;5098184;28;19923;-77
2023/01/18 06:57:04;;;;;;;;;;;;;;;0.89;100.00;99314.44;5099744;28;19920;-77
2023/01/18 06:59:29;;;;;;;;;;;;;;;0.90;100.00;99329.00;5095471;28;19936;-77
2023/01/18 07:01:54;;;;;;;;;;;;;;;0.90;100.00;99323.84;5098647;28;19927;-77
2023/01/18 07:04:20;;;;;;;;;;;;;;;0.92;100.00;99331.53;5098606;28;20211;-77
2023/01/18 07:06:45;;;;;;;;;;;;;;;0.92;100.00;99337.53;5097285;28;19919;-77
2023/01/18 07:09:12;;;;;;;;;;;;;;;0.93;100.00;99341.00;5097371;28;19918;-77
2023/01/18 07:11:41;;;;;;;;;;;;;;;0.95;100.00;99354.69;5095779;28;20243;-78
2023/01/18 07:14:06;;;;;;;;;;;;;;;0.95;100.00;99358.09;5097637;28;19981;-78
2023/01/18 07:16:32;;;;;;;;;;;;;;;0.97;100.00;99359.81;5078784;28;20322;-78
2023/01/18 07:18:59;;;;;;;;;;;;;;;0.97;100.00;99362.38;5078963;28;19935;-77
2023/01/18 07:21:28;;;;;;;;;;;;;;;0.97;100.00;99359.81;5097526;28;19946;-77
2023/01/18 07:23:54;;;;;;;;;;;;;;;0.98;100.00;99361.47;5097493;28;19939;-77
2023/01/18 07:26:19;;;;;;;;;;;;;;;0.99;100.00;99365.75;5097295;28;19931;-77
2023/01/18 07:28:45;;;;;;;;;;;;;;;1.00;100.00;99367.44;5096653;28;19912;-77
2023/01/18 07:31:10;;;;;;;;;;;;;;;1.01;100.00;99364.00;5099477;28;19908;-77
2023/01/18 07:33:36;;;;;;;;;;;;;;;1.01;100.00;99371.72;5098742;28;19916;-78
2023/01/18 07:36:03;;;;;;;;;;;;;;;1.02;100.00;99373.41;5098116;28;20158;-78
2023/01/18 07:38:29;;;;;;;;;;;;;;;1.03;100.00;99377.69;5099081;28;19923;-77
2023/01/18 07:41:01;;;;;;;;;;;;;;;1.03;100.00;99375.94;5098605;28;19915;-77
2023/01/18 07:43:27;;;;;;;;;;;;;;;1.03;100.00;99386.25;5093965;28;19992;-77
2023/01/18 07:45:56;;;;;;;;;;;;;;;1.05;100.00;99394.78;5089268;28;20403;-78
2023/01/18 07:48:22;;;;;;;;;;;;;;;1.07;100.00;99394.75;5077791;28;20250;-77
2023/01/18 07:50:51;;;;;;;;;;;;;;;1.08;100.00;99399.06;5086165;28;19916;-77
2023/01/18 07:53:17;;;;;;;;;;;;;;;1.08;100.00;99394.72;5076603;28;19921;-77
2023/01/18 07:55:43;;;;;;;;;;;;;;;1.10;100.00;99402.44;5077334;28;19920;-77
2023/01/18 07:58:09;;;;;;;;;;;;;;;1.11;100.00;99399.81;5077957;28;20149;-77
2023/01/18 08:00:34;;;;;;;;;;;;;;;1.11;100.00;99402.41;5076622;28;20005;-77
2023/01/18 08:02:59;;;;;;;;;;;;;;;1.14;100.00;99404.03;5076472;28;19928;-77
2023/01/18 08:05:26;;;;;;;;;;;;;;;1.13;100.00;99404.94;5076501;28;19966;-77
2023/01/18 08:07:55;;;;;;;;;;;;;;;1.14;100.00;99414.34;5077213;28;19950;-77
2023/01/18 08:10:20;;;;;;;;;;;;;;;1.17;100.00;99423.78;5076062;28;20247;-77
2023/01/18 08:12:46;;;;;;;;;;;;;;;1.17;100.00;99422.03;5077133;28;19916;-77
2023/01/18 08:15:11;;;;;;;;;;;;;;;1.18;100.00;99415.97;5077457;28;19913;-77
2023/01/18 08:17:37;;;;;;;;;;;;;;;1.19;100.00;99428.00;5096598;28;20115;-77
2023/01/18 08:20:04;;;;;;;;;;;;;;;1.21;100.00;99425.38;5076252;28;19931;-77
2023/01/18 08:22:30;;;;;;;;;;;;;;;1.22;100.00;99434.78;5077049;28;20175;-77
2023/01/18 08:24:55;;;;;;;;;;;;;;;1.22;100.00;99425.34;5076854;28;19920;-77
2023/01/18 08:27:21;;;;;;;;;;;;;;;1.24;100.00;99431.31;5077085;28;19924;-77
2023/01/18 08:29:47;;;;;;;;;;;;;;;1.24;100.00;99427.88;5081517;28;19947;-77
2023/01/18 08:32:12;;;;;;;;;;;;;;;1.26;100.00;99444.16;5097048;28;19942;-77
2023/01/18 08:34:37;;;;;;;;;;;;;;;1.26;100.00;99439.84;5097063;28;19916;-77
2023/01/18 08:37:03;;;;;;;;;;;;;;;1.27;100.00;99438.09;5096554;28;19931;-77
2023/01/18 08:39:28;;;;;;;;;;;;;;;1.27;100.00;99433.78;5094950;28;19927;-77
2023/01/18 08:41:53;;;;;;;;;;;;;;;1.28;100.00;99439.81;5096731;28;19977;-77
2023/01/18 08:44:18;;;;;;;;;;;;;;;1.30;100.00;99448.34;5079188;28;19994;-78
2023/01/18 08:46:44;;;;;;;;;;;;;;;1.30;100.00;99444.03;5095422;28;20013;-77
2023/01/18 08:49:09;;;;;;;;;;;;;;;1.32;100.00;99446.59;5096026;28;20219;-77
2023/01/18 08:51:34;;;;;;;;;;;;;;;1.33;100.00;99450.88;5095817;28;19912;-77
2023/01/18 08:54:00;;;;;;;;;;;;;;;1.34;100.00;99458.53;5097647;28;19951;-77
2023/01/18 08:56:25;;;;;;;;;;;;;;;1.35;100.00;99459.41;5097694;28;19920;-77
2023/01/18 08:58:51;;;;;;;;;;;;;;;1.37;100.00;99467.13;5095660;28;19993;-77
2023/01/18 09:01:16;;;;;;;;;;;;;;;1.37;100.00;99465.38;5097656;28;19912;-77
2023/01/18 09:03:42;;;;;;;;;;;;;;;1.40;100.00;99473.06;5097100;28;19908;-77
2023/01/18 09:06:08;;;;;;;;;;;;;;;1.41;100.00;99468.72;5097747;28;19955;-77
2023/01/18 09:08:33;;;;;;;;;;;;;;;1.42;100.00;99481.59;5097002;28;20196;-77
2023/01/18 09:11:02;;;;;;;;;;;;;;;1.43;100.00;99483.28;5097545;28;19916;-77
2023/01/18 09:13:27;;;;;;;;;;;;;;;1.45;100.00;99483.25;5097507;28;19917;-77
2023/01/18 09:16:00;;;;;;;;;;;;;;;1.47;100.00;99484.03;5093978;28;19950;-78
2023/01/18 09:18:25;;;;;;;;;;;;;;;1.48;100.00;99484.00;5086247;28;19963;-78
2023/01/18 09:20:53;;;;;;;;;;;;;;;1.50;100.00;99489.13;5085545;28;19929;-78
2023/01/18 09:23:18;;;;;;;;;;;;;;;1.51;100.00;99485.66;5086197;28;19951;-77
2023/01/18 09:25:43;;;;;;;;;;;;;;;1.52;100.00;99487.34;5094612;28;19935;-77
2023/01/18 09:28:08;;;;;;;;;;;;;;;1.53;100.00;99492.50;5096211;28;20238;-77
2023/01/18 09:30:34;;;;;;;;;;;;;;;1.54;100.00;99485.59;5096688;28;19924;-77
2023/01/18 09:33:00;;;;;;;;;;;;;;;1.57;100.00;99498.41;5097695;28;20330;-77
2023/01/18 09:35:25;;;;;;;;;;;;;;;1.57;100.00;99498.41;5097461;28;19915;-77
2023/01/18 09:37:50;;;;;;;;;;;;;;;1.59;100.00;99493.22;5096767;28;19916;-77
2023/01/18 09:40:17;;;;;;;;;;;;;;;1.60;100.00;99492.31;5097318;28;20115;-77
2023/01/18 09:42:43;;;;;;;;;;;;;;;1.59;100.00;99493.22;5096712;28;19923;-77
2023/01/18 09:45:16;;;;;;;;;;;;;;;1.59;100.00;99496.66;5097182;28;19951;-77
2023/01/18 09:47:46;;;;;;;;;;;;;;;1.61;100.00;99494.03;5096574;28;20124;-77
2023/01/18 09:50:15;;;;;;;;;;;;;;;1.62;100.00;99499.16;5095860;28;19916;-77
2023/01/18 09:52:41;;;;;;;;;;;;;;;1.65;100.00;99499.06;5099084;28;20257;-77
2023/01/18 09:55:15;;;;;;;;;;;;;;;1.67;100.00;99493.84;5100964;28;19927;-77
2023/01/18 09:57:45;;;;;;;;;;;;;;;1.68;100.00;99498.97;5100100;28;19920;-77
2023/01/18 10:00:19;;;;;;;;;;;;;;;1.71;100.00;99500.63;5099406;28;19916;-77
2023/01/18 10:02:47;;;;;;;;;;;;;;;1.73;100.00;99498.88;5100021;28;19965;-77
2023/01/18 10:05:15;;;;;;;;;;;;;;;1.76;100.00;99501.38;5100793;28;19916;-77
2023/01/18 10:08:01;;;;;;;;;;;;;;;1.78;100.00;99491.84;5100086;28;19916;-77
2023/01/18 10:10:29;;;;;;;;;;;;;;;1.78;100.00;99497.00;5101052;28;19919;-77
2023/01/18 10:13:05;;;;;;;;;;;;;;;1.82;100.00;99505.50;5100181;28;19986;-77
2023/01/18 10:15:33;;;;;;;;;;;;;;;1.83;100.00;99508.06;5100759;28;20124;-77
2023/01/18 10:17:59;;;;;;;;;;;;;;;1.86;100.00;99512.31;5097743;28;20333;-77
2023/01/18 10:20:25;;;;;;;;;;;;;;;1.86;100.00;99510.56;5095771;28;19916;-77
2023/01/18 10:22:50;;;;;;;;;;;;;;;1.88;100.00;99513.13;5097883;28;19963;-77
2023/01/18 10:25:15;;;;;;;;;;;;;;;1.90;100.00;99522.50;5104404;28;19983;-77
2023/01/18 10:27:40;;;;;;;;;;;;;;;1.90;100.00;99519.94;5096754;28;19912;-77
2023/01/18 10:30:06;;;;;;;;;;;;;;;1.92;100.00;99518.16;5094988;28;19920;-77
2023/01/18 10:32:31;;;;;;;;;;;;;;;1.94;100.00;99519.84;5092157;28;19915;-77
2023/01/18 10:34:57;;;;;;;;;;;;;;;1.95;100.00;99524.13;5099070;28;19924;-77
2023/01/18 10:37:34;;;;;;;;;;;;;;;1.95;100.00;99522.41;5099760;28;20213;-77
2023/01/18 10:40:02;;;;;;;;;;;;;;;1.98;100.00;99521.47;5099937;28;20121;-77
2023/01/18 10:42:36;;;;;;;;;;;;;;;1.99;100.00;99521.41;5098633;28;19945;-77
2023/01/18 10:45:01;;;;;;;;;;;;;;;2.03;100.00;99525.59;5098735;28;20155;-77
2023/01/18 10:47:27;;;;;;;;;;;;;;;2.05;100.00;99531.56;5099714;28;19916;-77
2023/01/18 10:49:56;;;;;;;;;;;;;;;2.07;100.00;99528.97;5096898;28;20154;-77
2023/01/18 10:52:31;;;;;;;;;;;;;;;2.09;100.00;99530.63;5098833;28;19916;-77
2023/01/18 10:55:06;;;;;;;;;;;;;;;2.12;100.00;99534.84;5097835;28;20195;-77
2023/01/18 10:57:36;;;;;;;;;;;;;;;2.13;100.00;99535.69;5099414;28;19950;-77
2023/01/18 11:00:11;;;;;;;;;;;;;;;2.13;100.00;99531.41;5094142;28;19920;-77
2023/01/18 11:02:37;;;;;;;;;;;;;;;2.14;100.00;99527.06;5078610;28;19908;-77
2023/01/18 11:05:21;;;;;;;;;;;;;;;2.14;100.00;99530.50;5096868;28;19919;-77
2023/01/18 11:07:46;;;;;;;;;;;;;;;2.15;100.00;99521.88;5097952;28;19947;-77
2023/01/18 11:10:25;;;;;;;;;;;;;;;2.17;98.70;99527.00;5094201;28;20116;-77
2023/01/18 11:12:51;;;;;;;;;;;;;;;2.19;98.82;99526.06;5078721;28;19918;-77
2023/01/18 11:15:17;;;;;;;;;;;;;;;2.22;98.95;99535.44;5079158;28;20294;-77
2023/01/18 11:17:44;;;;;;;;;;;;;;;2.26;98.05;99531.91;5078643;28;19921;-77
2023/01/18 11:20:18;;;;;;;;;;;;;;;2.26;97.77;99530.16;5079011;28;19946;-77
2023/01/18 11:23:00;;;;;;;;;;;;;;;2.29;97.81;99535.25;5078723;28;19949;-77
2023/01/18 11:25:36;;;;;;;;;;;;;;;2.31;97.66;99545.56;5096000;28;19914;-77
2023/01/18 11:28:03;;;;;;;;;;;;;;;2.34;96.76;99540.28;5096168;28;19920;-77
2023/01/18 11:30:28;;;;;;;;;;;;;;;2.35;96.44;99544.56;5088787;28;19915;-77
2023/01/18 11:32:53;;;;;;;;;;;;;;;2.38;96.67;99547.03;5092042;28;20101;-77
2023/01/18 11:35:37;;;;;;;;;;;;;;;2.40;96.94;99542.72;5091773;28;20165;-77
2023/01/18 11:38:05;;;;;;;;;;;;;;;2.43;97.05;99540.03;5098778;28;19931;-77
2023/01/18 11:40:34;;;;;;;;;;;;;;;2.46;96.68;99539.09;5098714;28;19943;-77
2023/01/18 11:43:21;;;;;;;;;;;;;;;2.48;96.74;99550.25;5095982;28;19912;-78
2023/01/18 11:45:49;;;;;;;;;;;;;;;2.51;97.18;99545.00;5094990;28;20154;-78
2023/01/18 11:48:29;;;;;;;;;;;;;;;2.53;97.22;99545.78;5099406;28;19916;-77
2023/01/18 11:50:57;;;;;;;;;;;;;;;2.54;97.10;99549.22;5097281;28;19953;-77
2023/01/18 11:53:30;;;;;;;;;;;;;;;2.57;97.25;99556.91;5100077;28;20096;-78
2023/01/18 11:56:13;;;;;;;;;;;;;;;2.59;97.33;99537.03;5098908;28;20226;-78
2023/01/18 11:58:39;;;;;;;;;;;;;;;2.60;97.38;99544.72;5097829;28;19962;-77
2023/01/18 12:01:12;;;;;;;;;;;;;;;2.63;97.01;99549.78;5098412;28;19908;-77
2023/01/18 12:03:58;;;;;;;;;;;;;;;2.66;97.05;99543.72;5097302;28;19995;-77
2023/01/18 12:06:31;;;;;;;;;;;;;;;2.69;97.07;99541.88;5098039;28;19947;-77
2023/01/18 12:09:07;;;;;;;;;;;;;;;2.73;95.80;99526.25;5097962;28;20104;-78
2023/01/18 12:11:52;;;;;;;;;;;;;;;2.76;95.83;99536.53;5097897;28;19908;-77
2023/01/18 12:14:33;;;;;;;;;;;;;;;2.79;95.11;99544.19;5098296;28;19939;-77
2023/01/18 12:17:20;;;;;;;;;;;;;;;2.82;94.16;99551.84;5098070;28;19920;-77
2023/01/18 12:19:48;;;;;;;;;;;;;;;2.84;94.66;99556.09;5097712;28;20178;-77
2023/01/18 12:22:21;;;;;;;;;;;;;;;2.88;94.56;99549.09;5097093;28;19919;-78
2023/01/18 12:24:55;;;;;;;;;;;;;;;2.90;94.34;99541.28;5097084;28;19951;-78
2023/01/18 12:27:29;;;;;;;;;;;;;;;2.94;94.71;99553.22;5097448;28;19923;-78
2023/01/18 12:30:12;;;;;;;;;;;;;;;2.96;94.91;99551.44;5097326;28;19975;-78
2023/01/18 12:32:40;;;;;;;;;;;;;;;2.97;94.75;99566.91;5095990;28;19969;-77
2023/01/18 12:35:13;;;;;;;;;;;;;;;2.98;94.58;99560.84;5097015;28;19908;-77
2023/01/18 12:37:53;;;;;;;;;;;;;;;2.99;94.45;99574.63;5096979;28;19915;-77
2023/01/18 12:40:21;;;;;;;;;;;;;;;3.00;94.12;99565.97;5089901;28;20226;-77
2023/01/18 12:42:47;;;;;;;;;;;;;;;2.99;94.30;99570.31;5075904;28;20180;-77
2023/01/18 12:45:31;;;;;;;;;;;;;;;2.98;94.40;99558.25;5077476;28;19908;-77
2023/01/18 12:48:18;;;;;;;;;;;;;;;2.99;95.06;99556.53;5077149;28;20099;-77
2023/01/18 12:50:47;;;;;;;;;;;;;;;2.97;95.52;99554.00;5075830;28;19919;-77
2023/01/18 12:53:14;;;;;;;;;;;;;;;2.99;96.22;99551.34;5073774;28;20255;-78
2023/01/18 12:55:42;;;;;;;;;;;;;;;2.99;96.63;99551.34;5073235;28;19915;-78
2023/01/18 12:58:13;;;;;;;;;;;;;;;2.99;97.05;99547.03;5074932;28;20286;-77
2023/01/18 13:00:42;;;;;;;;;;;;;;;3.01;97.30;99562.50;5074286;28;20219;-77
2023/01/18 13:03:16;;;;;;;;;;;;;;;3.00;97.27;99564.25;5074878;28;19916;-78
2023/01/18 13:05:51;;;;;;;;;;;;;;;3.02;97.27;99559.88;5074611;28;19919;-78
2023/01/18 13:08:22;;;;;;;;;;;;;;;3.04;97.50;99565.00;5076221;28;19908;-77
2023/01/18 13:10:48;;;;;;;;;;;;;;;3.04;97.61;99560.66;5074368;28;19922;-78
2023/01/18 13:13:18;;;;;;;;;;;;;;;3.05;97.60;99549.41;5076301;28;19913;-77
2023/01/18 13:16:00;;;;;;;;;;;;;;;3.06;97.78;99548.53;5076034;28;19916;-77
2023/01/18 13:18:29;;;;;;;;;;;;;;;3.06;97.53;99560.63;5077210;28;19916;-77
2023/01/18 13:21:01;;;;;;;;;;;;;;;3.07;97.50;99555.41;5076776;28;19916;-77
2023/01/18 13:23:36;;;;;;;;;;;;;;;3.07;97.10;99552.81;5075964;28;19912;-78